createdAt,value
2023-05-09T00:01:27.587Z,17.30
2023-05-09T00:03:54.941Z,17.02
2023-05-09T00:06:22.113Z,15.23
2023-05-09T00:08:49.324Z,15.23
2023-05-09T00:11:16.424Z,16.70
2023-05-09T00:13:44.251Z,17.38
2023-05-09T00:16:11.631Z,16.83
2023-05-09T00:18:42.257Z,15.75
2023-05-09T00:21:09.915Z,17.65
2023-05-09T00:23:37.246Z,15.43
2023-05-09T00:26:04.427Z,14.90
2023-05-09T00:28:32.298Z,16.42
2023-05-09T00:30:59.549Z,15.70
2023-05-09T00:33:26.989Z,16.40
2023-05-09T00:35:54.837Z,14.63
2023-05-09T00:38:22.977Z,15.93
2023-05-09T00:40:50.263Z,17.15
2023-05-09T00:43:17.461Z,22.15
2023-05-09T00:45:45.647Z,15.90
2023-05-09T00:48:12.985Z,13.90
2023-05-09T00:50:40.175Z,14.90
2023-05-09T00:53:07.583Z,16.42
2023-05-09T00:55:34.819Z,14.30
2023-05-09T00:58:02.320Z,16.25
2023-05-09T01:00:30.479Z,20.17
2023-05-09T01:02:58.201Z,16.63
2023-05-09T01:05:27.110Z,14.23
2023-05-09T01:08:17.167Z,14.45
2023-05-09T01:10:44.901Z,18.05
2023-05-09T01:13:20.996Z,16.48
2023-05-09T01:15:57.399Z,14.25
2023-05-09T01:18:31.225Z,14.85
2023-05-09T01:21:04.057Z,15.32
2023-05-09T01:23:47.222Z,15.15
2023-05-09T01:26:35.960Z,13.93
2023-05-09T01:29:21.469Z,14.95
2023-05-09T01:31:51.860Z,15.20
2023-05-09T01:34:19.201Z,15.98
2023-05-09T01:36:47.642Z,13.95
2023-05-09T01:39:14.905Z,14.93
2023-05-09T01:41:42.011Z,17.08
2023-05-09T01:44:11.821Z,15.07
2023-05-09T01:46:39.132Z,15.32
2023-05-09T01:49:09.011Z,16.58
2023-05-09T01:51:37.253Z,15.68
2023-05-09T01:54:04.855Z,17.15
2023-05-09T01:56:32.531Z,18.30
2023-05-09T01:59:00.476Z,16.15
2023-05-09T02:01:27.690Z,15.93
2023-05-09T02:03:55.023Z,14.35
2023-05-09T02:06:23.867Z,20.30
2023-05-09T02:08:51.657Z,16.33
2023-05-09T02:11:18.827Z,15.38
2023-05-09T02:13:46.010Z,19.17
2023-05-09T02:16:13.835Z,16.38
2023-05-09T02:18:41.744Z,15.60
2023-05-09T02:21:08.939Z,15.35
2023-05-09T02:23:36.258Z,15.43
2023-05-09T02:26:04.048Z,15.27
2023-05-09T02:28:31.472Z,15.82
2023-05-09T02:30:59.867Z,15.50
2023-05-09T02:33:27.940Z,15.65
2023-05-09T02:35:56.044Z,15.65
2023-05-09T02:38:23.168Z,15.70
2023-05-09T02:40:52.628Z,15.90
2023-05-09T02:43:19.965Z,15.30
2023-05-09T02:45:47.160Z,15.98
2023-05-09T02:48:14.383Z,15.57
2023-05-09T02:50:43.377Z,16.88
2023-05-09T02:53:10.560Z,15.50
2023-05-09T02:55:37.660Z,16.02
2023-05-09T02:58:13.331Z,14.82
2023-05-09T03:00:42.249Z,16.58
2023-05-09T03:03:09.653Z,16.20
2023-05-09T03:05:36.830Z,14.75
2023-05-09T03:08:04.078Z,14.77
2023-05-09T03:10:31.179Z,14.55
2023-05-09T03:12:58.338Z,15.95
2023-05-09T03:15:25.442Z,15.57
2023-05-09T03:17:52.912Z,16.10
2023-05-09T03:20:20.523Z,17.52
2023-05-09T03:22:48.483Z,14.80
2023-05-09T03:25:16.285Z,14.20
2023-05-09T03:27:43.616Z,18.90
2023-05-09T03:30:11.014Z,15.15
2023-05-09T03:32:39.037Z,16.55
2023-05-09T03:35:06.447Z,14.57
2023-05-09T03:37:33.633Z,16.00
2023-05-09T03:40:00.838Z,16.05
2023-05-09T03:42:27.941Z,18.35
2023-05-09T03:44:55.107Z,15.98
2023-05-09T03:47:22.230Z,17.92
2023-05-09T03:49:49.631Z,18.08
2023-05-09T03:52:16.785Z,15.52
2023-05-09T03:54:43.925Z,16.85
2023-05-09T03:57:11.323Z,14.70
2023-05-09T03:59:38.450Z,17.40
2023-05-09T04:02:05.980Z,19.27
2023-05-09T04:04:33.169Z,15.85
2023-05-09T04:07:00.326Z,16.40
2023-05-09T04:09:28.157Z,16.17
2023-05-09T04:11:55.268Z,15.98
2023-05-09T04:14:22.385Z,17.30
2023-05-09T04:16:49.531Z,17.95
2023-05-09T04:19:16.725Z,17.75
2023-05-09T04:21:43.926Z,18.55
2023-05-09T04:24:11.578Z,16.50
2023-05-09T04:26:39.097Z,18.38
2023-05-09T04:29:07.321Z,19.42
2023-05-09T04:31:34.547Z,15.43
2023-05-09T04:34:01.857Z,16.20
2023-05-09T04:36:29.022Z,17.45
2023-05-09T04:38:56.204Z,14.80
2023-05-09T04:41:23.941Z,16.75
2023-05-09T04:43:52.343Z,14.98
2023-05-09T04:46:19.459Z,15.65
2023-05-09T04:48:46.592Z,13.63
2023-05-09T04:51:13.697Z,17.75
2023-05-09T04:53:41.259Z,17.80
2023-05-09T04:56:08.676Z,15.43
2023-05-09T04:58:38.436Z,15.63
2023-05-09T05:01:06.259Z,15.68
2023-05-09T05:03:33.750Z,15.00
2023-05-09T05:06:00.868Z,14.98
2023-05-09T05:08:27.999Z,16.88
2023-05-09T05:10:55.205Z,16.20
2023-05-09T05:13:22.507Z,15.25
2023-05-09T05:15:50.008Z,13.70
2023-05-09T05:18:17.201Z,16.20
2023-05-09T05:20:44.497Z,15.93
2023-05-09T05:23:12.003Z,13.30
2023-05-09T05:25:39.303Z,17.02
2023-05-09T05:28:06.660Z,16.38
2023-05-09T05:30:34.513Z,14.30
2023-05-09T05:33:01.924Z,13.98
2023-05-09T05:35:29.381Z,13.38
2023-05-09T05:37:56.684Z,16.58
2023-05-09T05:40:23.853Z,14.13
2023-05-09T05:42:51.004Z,16.38
2023-05-09T05:45:18.134Z,12.70
2023-05-09T05:47:45.666Z,15.43
2023-05-09T05:50:13.154Z,14.88
2023-05-09T05:52:40.484Z,15.88
2023-05-09T05:55:08.029Z,14.38
2023-05-09T05:57:35.397Z,16.73
2023-05-09T06:00:05.724Z,12.15
2023-05-09T06:02:32.947Z,12.73
2023-05-09T06:05:00.153Z,15.93
2023-05-09T06:07:28.057Z,15.98
2023-05-09T06:09:55.498Z,13.65
2023-05-09T06:12:22.604Z,13.90
2023-05-09T06:14:49.734Z,14.50
2023-05-09T06:17:17.009Z,15.70
2023-05-09T06:19:44.729Z,13.30
2023-05-09T06:22:11.835Z,14.02
2023-05-09T06:24:38.972Z,14.57
2023-05-09T06:27:06.173Z,12.48
2023-05-09T06:29:33.328Z,14.52
2023-05-09T06:32:00.572Z,14.13
2023-05-09T06:34:27.730Z,13.00
2023-05-09T06:36:54.868Z,15.43
2023-05-09T06:39:21.999Z,15.05
2023-05-09T06:41:49.116Z,16.35
2023-05-09T06:44:16.206Z,12.30
2023-05-09T06:46:43.424Z,12.30
2023-05-09T06:49:10.977Z,12.52
2023-05-09T06:51:38.152Z,14.85
2023-05-09T06:54:05.252Z,19.83
2023-05-09T06:56:32.557Z,10.25
2023-05-09T06:58:59.662Z,10.85
2023-05-09T07:01:27.127Z,10.35
2023-05-09T07:03:54.253Z,15.00
2023-05-09T07:06:21.387Z,11.93
2023-05-09T07:08:48.518Z,10.60
2023-05-09T07:11:16.228Z,9.77
2023-05-09T07:13:43.373Z,9.70
2023-05-09T07:16:10.553Z,10.35
2023-05-09T07:18:37.775Z,11.00
2023-05-09T07:21:05.176Z,9.13
2023-05-09T07:23:32.292Z,8.32
2023-05-09T07:26:00.232Z,10.95
2023-05-09T07:28:27.377Z,8.32
2023-05-09T07:30:57.610Z,7.78
2023-05-09T07:33:24.767Z,8.82
2023-05-09T07:35:53.052Z,10.60
2023-05-09T07:38:20.378Z,7.03
2023-05-09T07:40:47.536Z,9.18
2023-05-09T07:43:14.736Z,8.65
2023-05-09T07:45:41.900Z,8.63
2023-05-09T07:48:09.588Z,7.25
2023-05-09T07:50:36.817Z,6.80
2023-05-09T07:53:03.939Z,7.40
2023-05-09T07:55:31.063Z,7.38
2023-05-09T07:57:58.212Z,10.85
2023-05-09T08:00:25.605Z,7.88
2023-05-09T08:02:53.077Z,7.68
2023-05-09T08:05:20.547Z,8.60
2023-05-09T08:07:47.676Z,8.75
2023-05-09T08:10:14.918Z,8.02
2023-05-09T08:12:42.118Z,8.85
2023-05-09T08:15:09.473Z,8.45
2023-05-09T08:17:36.607Z,8.73
2023-05-09T08:20:05.576Z,8.40
2023-05-09T08:22:32.735Z,8.98
2023-05-09T08:24:59.851Z,9.43
2023-05-09T08:27:26.968Z,10.63
2023-05-09T08:29:54.085Z,8.77
2023-05-09T08:32:21.260Z,9.30
2023-05-09T08:34:48.382Z,9.40
2023-05-09T08:37:15.731Z,8.55
2023-05-09T08:39:43.216Z,9.13
2023-05-09T08:42:11.083Z,8.80
2023-05-09T08:44:38.400Z,8.50
2023-05-09T08:47:05.572Z,9.05
2023-05-09T08:49:33.401Z,9.50
2023-05-09T08:52:00.801Z,9.48
2023-05-09T08:54:28.379Z,8.02
2023-05-09T08:56:55.582Z,7.72
2023-05-09T08:59:22.784Z,8.88
2023-05-09T09:01:49.972Z,9.48
2023-05-09T09:04:17.197Z,8.88
2023-05-09T09:06:44.501Z,18.02
2023-05-09T09:09:12.384Z,10.45
2023-05-09T09:11:41.622Z,12.57
2023-05-09T09:14:13.628Z,9.43
2023-05-09T09:16:42.013Z,9.13
2023-05-09T09:19:13.348Z,8.68
2023-05-09T09:21:43.363Z,10.15
2023-05-09T09:24:13.432Z,11.50
2023-05-09T09:26:48.317Z,10.45
2023-05-09T09:29:16.016Z,10.32
2023-05-09T09:31:46.991Z,11.93
2023-05-09T09:34:15.653Z,10.85
2023-05-09T09:36:42.872Z,12.48
2023-05-09T09:39:10.261Z,14.20
2023-05-09T09:41:38.649Z,13.88
2023-05-09T09:44:13.347Z,11.55
2023-05-09T09:49:09.682Z,13.02
2023-05-09T09:51:36.863Z,17.27
2023-05-09T09:54:04.953Z,9.98
2023-05-09T09:56:41.827Z,9.80
2023-05-09T09:59:10.313Z,9.05
2023-05-09T10:01:37.528Z,9.23
2023-05-09T10:04:04.838Z,14.35
2023-05-09T10:06:32.664Z,17.10
2023-05-09T10:08:59.773Z,10.75
2023-05-09T10:11:26.967Z,8.50
2023-05-09T10:13:54.116Z,13.38
2023-05-09T10:16:28.598Z,14.35
2023-05-09T10:19:03.451Z,9.27
2023-05-09T10:21:31.525Z,9.50
2023-05-09T10:23:59.255Z,11.25
2023-05-09T10:26:29.010Z,12.00
2023-05-09T10:28:57.821Z,12.43
2023-05-09T10:31:29.205Z,12.43
2023-05-09T10:33:56.778Z,14.43
2023-05-09T10:36:24.212Z,8.93
2023-05-09T10:38:53.950Z,9.60
2023-05-09T10:41:25.568Z,11.10
2023-05-09T10:43:52.950Z,9.90
2023-05-09T10:46:20.540Z,9.82
2023-05-09T10:48:48.402Z,12.70
2023-05-09T10:51:16.278Z,12.95
2023-05-09T10:53:50.222Z,15.30
2023-05-09T10:56:29.668Z,9.68
2023-05-09T10:58:57.379Z,11.50
2023-05-09T11:01:32.807Z,11.23
2023-05-09T11:04:00.585Z,12.38
2023-05-09T11:06:47.598Z,14.88
2023-05-09T11:09:39.220Z,14.23
2023-05-09T11:12:07.018Z,13.63
2023-05-09T11:14:34.314Z,11.52
2023-05-09T11:17:06.585Z,13.80
2023-05-09T11:19:37.588Z,15.70
2023-05-09T11:22:16.520Z,20.30
2023-05-09T11:24:47.416Z,15.63
2023-05-09T11:27:21.457Z,17.45
2023-05-09T11:29:55.473Z,16.23
2023-05-09T11:32:23.362Z,15.50
2023-05-09T11:34:50.497Z,15.73
2023-05-09T11:37:19.237Z,20.05
2023-05-09T11:39:59.694Z,16.75
2023-05-09T11:42:29.140Z,18.30
2023-05-09T11:44:57.256Z,19.17
2023-05-09T11:47:24.504Z,17.10
2023-05-09T11:49:52.064Z,16.20
2023-05-09T11:52:21.602Z,17.00
2023-05-09T11:54:49.569Z,18.75
2023-05-09T11:57:20.012Z,13.82
2023-05-09T11:59:47.222Z,17.30
2023-05-09T12:02:14.932Z,17.42
2023-05-09T12:04:42.124Z,23.35
2023-05-09T12:07:12.603Z,16.63
2023-05-09T12:09:39.875Z,18.38
2023-05-09T12:12:11.558Z,16.95
2023-05-09T12:14:39.579Z,20.25
2023-05-09T12:17:10.075Z,16.52
2023-05-09T12:19:37.222Z,15.30
2023-05-09T12:22:06.718Z,16.58
2023-05-09T12:24:36.206Z,17.35
2023-05-09T12:27:03.713Z,19.77
2023-05-09T12:29:31.522Z,18.60
2023-05-09T12:31:58.747Z,17.23
2023-05-09T12:34:25.874Z,18.73
2023-05-09T12:36:53.588Z,21.73
2023-05-09T12:39:22.994Z,17.42
2023-05-09T12:42:00.966Z,19.58
2023-05-09T12:44:29.720Z,17.85
2023-05-09T12:46:57.309Z,19.33
2023-05-09T12:49:24.900Z,17.73
2023-05-09T12:51:53.512Z,15.75
2023-05-09T12:54:22.356Z,15.00
2023-05-09T12:56:52.115Z,18.70
2023-05-09T12:59:26.754Z,16.85
2023-05-09T13:01:57.781Z,20.02
2023-05-09T13:04:25.998Z,16.30
2023-05-09T13:06:57.707Z,15.48
2023-05-09T13:09:25.711Z,19.00
2023-05-09T13:11:53.084Z,20.85
2023-05-09T13:14:23.698Z,15.40
2023-05-09T13:16:50.894Z,13.75
2023-05-09T13:19:18.040Z,14.55
2023-05-09T13:21:45.202Z,18.00
2023-05-09T13:24:12.360Z,21.85
2023-05-09T13:26:39.656Z,17.02
2023-05-09T13:29:06.788Z,18.52
2023-05-09T13:31:33.908Z,16.58
2023-05-09T13:34:01.070Z,14.45
2023-05-09T13:36:28.623Z,15.65
2023-05-09T13:38:55.741Z,17.58
2023-05-09T13:41:24.177Z,22.23
2023-05-09T13:43:51.390Z,12.25
2023-05-09T13:46:18.572Z,10.63
2023-05-09T13:48:47.564Z,12.52
2023-05-09T13:51:14.958Z,15.00
2023-05-09T13:53:42.131Z,15.48
2023-05-09T13:56:09.617Z,14.80
2023-05-09T13:58:36.936Z,13.50
2023-05-09T14:01:04.219Z,11.57
2023-05-09T14:03:31.852Z,12.30
2023-05-09T14:05:59.763Z,15.48
2023-05-09T14:08:27.033Z,15.60
2023-05-09T14:10:54.674Z,13.05
2023-05-09T14:13:21.980Z,15.85
2023-05-09T14:15:49.313Z,14.18
2023-05-09T14:18:20.037Z,14.05
2023-05-09T14:20:48.172Z,12.20
2023-05-09T14:23:15.306Z,14.75
2023-05-09T14:25:42.446Z,12.20
2023-05-09T14:28:09.713Z,16.30
2023-05-09T14:30:37.037Z,15.95
2023-05-09T14:33:04.210Z,12.35
2023-05-09T14:35:34.102Z,12.52
2023-05-09T14:38:02.055Z,15.38
2023-05-09T14:40:32.210Z,11.00
2023-05-09T14:43:02.357Z,15.32
2023-05-09T14:45:29.925Z,12.32
2023-05-09T14:47:57.186Z,10.38
2023-05-09T14:50:24.387Z,14.27
2023-05-09T14:52:51.841Z,11.50
2023-05-09T14:55:19.456Z,11.73
2023-05-09T14:57:46.659Z,10.60
2023-05-09T15:00:21.232Z,11.27
2023-05-09T15:02:50.029Z,11.52
2023-05-09T15:05:17.454Z,9.10
2023-05-09T15:07:44.628Z,9.73
2023-05-09T15:10:11.890Z,10.68
2023-05-09T15:12:38.990Z,10.13
2023-05-09T15:15:15.235Z,9.25
2023-05-09T15:17:43.125Z,8.23
2023-05-09T15:20:10.604Z,10.48
2023-05-09T15:22:38.060Z,11.10
2023-05-09T15:25:06.300Z,10.13
2023-05-09T15:27:33.549Z,8.10
2023-05-09T15:30:01.121Z,8.65
2023-05-09T15:32:28.445Z,11.00
2023-05-09T15:34:55.660Z,8.18
2023-05-09T15:37:22.745Z,8.93
2023-05-09T15:39:49.937Z,9.00
2023-05-09T15:42:17.600Z,12.15
2023-05-09T15:44:44.749Z,9.43
2023-05-09T15:47:12.062Z,9.50
2023-05-09T15:49:40.138Z,9.45
2023-05-09T15:52:07.687Z,11.77
2023-05-09T15:54:35.933Z,10.98
2023-05-09T15:57:03.060Z,11.13
2023-05-09T15:59:30.208Z,9.38
2023-05-09T16:01:57.420Z,9.57
2023-05-09T16:04:24.724Z,8.52
2023-05-09T16:06:52.085Z,7.05
2023-05-09T16:09:19.453Z,9.07
2023-05-09T16:11:46.540Z,7.25
2023-05-09T16:14:14.013Z,9.48
2023-05-09T16:16:42.710Z,7.93
2023-05-09T16:19:09.956Z,11.70
2023-05-09T16:21:37.846Z,7.95
2023-05-09T16:24:05.252Z,12.52
2023-05-09T16:26:32.521Z,9.07
2023-05-09T16:29:00.023Z,8.75
2023-05-09T16:31:27.492Z,6.60
2023-05-09T16:33:54.896Z,7.60
2023-05-09T16:36:22.155Z,7.18
2023-05-09T16:38:49.339Z,7.38
2023-05-09T16:41:17.037Z,6.45
2023-05-09T16:43:44.113Z,7.32
2023-05-09T16:46:11.363Z,8.80
2023-05-09T16:48:38.560Z,6.82
2023-05-09T16:51:05.830Z,6.32
2023-05-09T16:53:32.977Z,10.75
2023-05-09T16:56:00.203Z,9.55
2023-05-09T16:58:27.336Z,8.32
2023-05-09T17:00:55.295Z,8.40
2023-05-09T17:03:22.466Z,8.70
2023-05-09T17:05:49.673Z,7.10
2023-05-09T17:08:16.845Z,7.65
2023-05-09T17:10:43.970Z,8.13
2023-05-09T17:13:11.086Z,9.77
2023-05-09T17:15:38.556Z,8.23
2023-05-09T17:18:06.469Z,10.30
2023-05-09T17:20:33.671Z,7.68
2023-05-09T17:23:00.908Z,8.82
2023-05-09T17:25:28.169Z,8.43
2023-05-09T17:27:55.258Z,7.88
2023-05-09T17:30:23.356Z,8.02
2023-05-09T17:32:50.802Z,8.15
2023-05-09T17:35:20.049Z,10.32
2023-05-09T17:37:47.146Z,7.88
2023-05-09T17:40:14.910Z,10.73
2023-05-09T17:42:42.340Z,7.50
2023-05-09T17:45:11.361Z,9.63
2023-05-09T17:47:39.296Z,6.88
2023-05-09T17:50:10.599Z,8.20
2023-05-09T17:52:37.733Z,8.10
2023-05-09T17:55:05.034Z,8.60
2023-05-09T17:57:32.220Z,8.60
2023-05-09T18:00:00.291Z,9.90
2023-05-09T18:02:27.522Z,7.80
2023-05-09T18:04:54.786Z,8.57
2023-05-09T18:07:22.901Z,10.00
2023-05-09T18:09:50.014Z,8.40
2023-05-09T18:12:17.168Z,7.38
2023-05-09T18:14:44.268Z,9.43
2023-05-09T18:17:11.437Z,7.00
2023-05-09T18:19:41.225Z,7.70
2023-05-09T18:22:08.381Z,7.68
2023-05-09T18:24:36.699Z,8.88
2023-05-09T18:27:04.228Z,8.07
2023-05-09T18:29:31.393Z,7.55
2023-05-09T18:31:58.496Z,6.10
2023-05-09T18:34:25.680Z,8.45
2023-05-09T18:36:52.778Z,6.97
2023-05-09T18:39:20.072Z,8.52
2023-05-09T18:41:47.356Z,5.97
2023-05-09T18:44:14.516Z,6.93
2023-05-09T18:46:41.682Z,6.43
2023-05-09T18:49:09.509Z,8.25
2023-05-09T18:51:36.641Z,5.85
2023-05-09T18:54:03.876Z,7.22
2023-05-09T18:56:31.016Z,7.85
2023-05-09T18:58:58.114Z,6.00
2023-05-09T19:01:25.633Z,10.77
2023-05-09T19:03:54.335Z,11.30
2023-05-09T19:06:22.199Z,6.78
2023-05-09T19:08:49.306Z,6.85
2023-05-09T19:11:16.566Z,5.55
2023-05-09T19:13:48.464Z,7.07
2023-05-09T19:16:17.228Z,5.80
2023-05-09T19:18:44.425Z,6.32
2023-05-09T19:21:13.388Z,8.48
2023-05-09T19:23:40.520Z,7.43
2023-05-09T19:26:08.454Z,7.38
2023-05-09T19:28:35.644Z,9.23
2023-05-09T19:31:02.817Z,6.07
2023-05-09T19:33:29.972Z,7.40
2023-05-09T19:35:57.131Z,7.15
2023-05-09T19:38:24.903Z,8.15
2023-05-09T19:40:52.116Z,8.93
2023-05-09T19:43:19.220Z,6.82
2023-05-09T19:45:46.464Z,6.35
2023-05-09T19:48:15.178Z,8.70
2023-05-09T19:50:43.071Z,7.70
2023-05-09T19:53:10.387Z,5.90
2023-05-09T19:55:37.673Z,9.50
2023-05-09T19:58:05.144Z,9.75
2023-05-09T20:00:32.431Z,7.75
2023-05-09T20:02:59.689Z,6.88
2023-05-09T20:05:26.921Z,8.18
2023-05-09T20:07:54.051Z,8.30
2023-05-09T20:10:21.279Z,7.35
2023-05-09T20:12:48.725Z,7.80
2023-05-09T20:15:15.896Z,8.00
2023-05-09T20:17:43.117Z,8.50
2023-05-09T20:20:10.718Z,8.27
2023-05-09T20:22:37.858Z,7.18
2023-05-09T20:25:05.221Z,10.38
2023-05-09T20:27:32.375Z,6.60
2023-05-09T20:29:59.560Z,8.65
2023-05-09T20:32:28.024Z,9.15
2023-05-09T20:34:55.173Z,8.90
2023-05-09T20:37:22.358Z,8.38
2023-05-09T20:39:49.658Z,7.15
2023-05-09T20:42:16.769Z,7.72
2023-05-09T20:44:44.227Z,5.88
2023-05-09T20:47:12.750Z,12.48
2023-05-09T20:49:39.833Z,7.00
2023-05-09T20:52:06.947Z,6.82
2023-05-09T20:54:34.121Z,6.78
2023-05-09T20:57:01.245Z,6.95
2023-05-09T20:59:28.366Z,7.03
2023-05-09T21:01:56.272Z,8.95
2023-05-09T21:04:23.426Z,9.05
2023-05-09T21:06:50.535Z,8.35
2023-05-09T21:09:18.394Z,9.45
2023-05-09T21:11:46.874Z,9.63
2023-05-09T21:14:14.088Z,6.63
2023-05-09T21:16:43.740Z,6.22
2023-05-09T21:19:11.070Z,9.68
2023-05-09T21:21:38.212Z,5.03
2023-05-09T21:24:09.017Z,5.43
2023-05-09T21:26:36.501Z,5.40
2023-05-09T21:29:03.866Z,5.20
2023-05-09T21:31:31.349Z,2.90
2023-05-09T21:33:59.280Z,5.05
2023-05-09T21:36:26.538Z,2.58
2023-05-09T21:38:53.632Z,1.90
2023-05-09T21:41:21.890Z,3.92
2023-05-09T21:43:49.007Z,4.03
2023-05-09T21:46:16.144Z,2.47
2023-05-09T21:48:43.244Z,4.57
2023-05-09T21:51:11.407Z,2.33
2023-05-09T21:53:38.493Z,2.72
2023-05-09T21:56:06.080Z,2.40
2023-05-09T21:58:33.229Z,4.28
2023-05-09T22:01:00.608Z,3.90
2023-05-09T22:03:27.820Z,2.47
2023-05-09T22:05:55.011Z,3.20
2023-05-09T22:08:22.096Z,3.55
2023-05-09T22:10:50.197Z,1.33
2023-05-09T22:13:17.339Z,2.90
2023-05-09T22:15:44.701Z,1.75
2023-05-09T22:18:11.935Z,2.03
2023-05-09T22:20:39.020Z,3.35
2023-05-09T22:23:06.154Z,2.17
2023-05-09T22:25:33.252Z,1.40
2023-05-09T22:28:00.915Z,2.45
2023-05-09T22:30:28.130Z,1.10
2023-05-09T22:32:55.354Z,2.67
2023-05-09T22:35:22.522Z,1.98
2023-05-09T22:37:49.724Z,2.08
2023-05-09T22:40:17.178Z,2.05
2023-05-09T22:42:44.429Z,2.00
2023-05-09T22:45:11.778Z,1.15
2023-05-09T22:47:38.914Z,1.25
2023-05-09T22:50:06.359Z,0.85
2023-05-09T22:52:33.485Z,3.53
2023-05-09T22:55:00.602Z,2.13
2023-05-09T22:57:27.777Z,0.90
2023-05-09T22:59:54.871Z,0.70
2023-05-09T23:02:22.091Z,1.73
2023-05-09T23:04:49.284Z,1.25
2023-05-09T23:07:16.479Z,2.15
2023-05-09T23:09:44.236Z,2.13
2023-05-09T23:12:11.411Z,1.00
2023-05-09T23:14:38.533Z,0.90
2023-05-09T23:17:05.694Z,1.35
2023-05-09T23:19:33.121Z,1.83
2023-05-09T23:22:00.241Z,1.20
2023-05-09T23:24:27.370Z,2.45
2023-05-09T23:26:54.588Z,1.20
2023-05-09T23:29:21.959Z,1.13
2023-05-09T23:31:49.398Z,1.27
2023-05-09T23:34:17.464Z,5.40
2023-05-09T23:36:44.589Z,1.02
2023-05-09T23:39:12.079Z,1.00
2023-05-09T23:41:39.263Z,1.02
2023-05-09T23:44:07.564Z,1.25
2023-05-09T23:46:34.786Z,3.08
2023-05-09T23:49:01.935Z,2.55
2023-05-09T23:51:29.045Z,2.17
2023-05-09T23:53:56.968Z,0.90
2023-05-09T23:56:25.259Z,1.73
2023-05-09T23:58:52.429Z,1.05
